Aeroporto :
LOGIN :

Iscrizione | Disclaimer

   EN    FR    IT 

 










Sommario :    VFR   VFR Marginale   IFR   IFR Intensivo   IFR Molto Intensivo
Visibilità : 
Base nubi : 
>= 8 km
>= 3000ft
5 / 8 km
1000 / 3000 ft
1500m / 5 km
500 / 1000 ft
800 / 1500m
200 / 500 ft
< 800m
< 200 ft
Simboli :   Temporali  Nebbia  Neve Forte  Precipitazioni Forti  Vento > 20 kt
SIGMETs :   Varie  Temporali  Ghiacco  Turbolenza  Onda orograficha  Ceneri Vulcaniche






- Altitudine del aeroporto : 15 ft
- Codice IATA : BHD


EGAC - George Best Belfast City

ULTIMO METAR :
  • 092020Z AUTO 18006KT 9999 NCD 05/03 Q1018

METARs OBSOLETI :
  • 091950Z AUTO 19008KT 9999 NCD 05/04 Q1018
  • 091920Z AUTO 20007KT 9999 NCD 05/04 Q1019
  • 091850Z AUTO 19008KT 9999 NCD 05/03 Q1019
  • 091820Z AUTO 17007KT 9999 NCD 05/03 Q1019
  • 091750Z AUTO 19006KT 9999 NCD 05/03 Q1019

TAF TAF EGAC
Valido dal 09 a 18 ore il 09 a 22 ore UTC


091656Z 0918/0922 18009KT 9999 FEW035
ATIS : +44 02890 935 124



MetMap, La meteo Aeronautica in un colpo d'occhio ! - Copyright ORBIFLY Dicembre 2007 - Disclaimer

ORBIFLY MET'MAP TEAM :

Programmazione e sviluppo : Alexandra Zaïnal
Concezione : Baudouin d'Aumeries
Aiuto per la programmazione : Marc-Olivier Méhu
Supporto tecnico e logistico : Manuel Goepfert
Aiuto per la traduzione : Arnaldo La Scala

Contatto : metmap@orbifly.com




FONTI E CREDITI :

   NOAA